Time;durP1;ratioP1;P1;durP2;ratioP2;P2;SDS_P1;SDS_P2;PMS_P1;PMS_P2;Temp;Humidity;BMP_temperature;BMP_pressure;BME280_temperature;BME280_humidity;BME280_pressure;Samples;Min_cycle;Max_cycle;Signal;HPM_P1;HPM_P2
2022/04/25 00:00:02;;;;;;;37.93;32.03;;;7.90;99.90;;;;;;5033902;28;20202;-73
2022/04/25 00:02:29;;;;;;;41.70;34.30;;;7.90;99.90;;;;;;5026593;28;20234;-73
2022/04/25 00:04:56;;;;;;;41.93;35.00;;;7.90;99.90;;;;;;5033679;28;20249;-73
2022/04/25 00:07:24;;;;;;;40.03;35.40;;;7.90;99.90;;;;;;5033932;28;20204;-73
2022/04/25 00:09:50;;;;;;;40.33;34.23;;;7.90;99.90;;;;;;5033639;28;20268;-73
2022/04/25 00:12:17;;;;;;;44.07;35.03;;;7.90;99.90;;;;;;5033488;28;20208;-73
2022/04/25 00:14:44;;;;;;;43.20;35.10;;;7.90;99.90;;;;;;5033755;28;20198;-73
2022/04/25 00:17:10;;;;;;;42.20;36.00;;;7.90;99.90;;;;;;5033329;28;20539;-73
2022/04/25 00:19:37;;;;;;;42.93;35.47;;;7.90;99.90;;;;;;5033852;28;20206;-73
2022/04/25 00:22:04;;;;;;;42.30;35.43;;;7.80;99.90;;;;;;5033553;28;20206;-74
2022/04/25 00:24:32;;;;;;;41.60;35.57;;;7.80;99.90;;;;;;5033717;28;20272;-74
2022/04/25 00:26:59;;;;;;;45.03;37.53;;;7.80;99.90;;;;;;5033462;28;20565;-74
2022/04/25 00:29:26;;;;;;;45.00;37.27;;;7.80;99.90;;;;;;5034375;28;20605;-73
2022/04/25 00:31:52;;;;;;;44.87;37.70;;;7.80;99.90;;;;;;5037770;28;20539;-74
2022/04/25 00:34:19;;;;;;;45.50;37.70;;;7.70;99.90;;;;;;5037942;28;20220;-74
2022/04/25 00:36:46;;;;;;;45.33;39.03;;;7.80;99.90;;;;;;5037657;28;20252;-74
2022/04/25 00:39:12;;;;;;;45.97;37.77;;;7.70;99.90;;;;;;5037705;28;20654;-73
2022/04/25 00:41:41;;;;;;;44.27;38.70;;;7.80;99.90;;;;;;5037478;28;20232;-73
2022/04/25 00:44:07;;;;;;;49.87;38.80;;;7.70;99.90;;;;;;5037450;28;20194;-73
2022/04/25 00:46:36;;;;;;;46.13;39.30;;;7.70;99.90;;;;;;5037083;28;20202;-74
2022/04/25 00:49:03;;;;;;;43.07;37.63;;;7.70;99.90;;;;;;5036996;28;20232;-73
2022/04/25 00:51:29;;;;;;;46.10;38.33;;;7.70;99.90;;;;;;5036734;28;20272;-74
2022/04/25 00:53:56;;;;;;;46.63;39.77;;;7.70;99.90;;;;;;5036579;28;20252;-74
2022/04/25 00:56:25;;;;;;;44.70;37.47;;;7.70;99.90;;;;;;5036913;28;20614;-73
2022/04/25 00:58:53;;;;;;;46.17;39.67;;;7.70;99.90;;;;;;5036818;28;20204;-74
2022/04/25 01:01:21;;;;;;;46.23;38.40;;;7.70;99.90;;;;;;5046172;28;20271;-74
2022/04/25 01:03:49;;;;;;;45.03;38.33;;;7.70;99.90;;;;;;5055236;28;20201;-74
2022/04/25 01:06:16;;;;;;;42.33;37.47;;;7.60;99.90;;;;;;5055161;28;20208;-74
2022/04/25 01:08:45;;;;;;;46.03;38.20;;;7.70;99.90;;;;;;5054937;28;20256;-74
2022/04/25 01:11:13;;;;;;;44.67;38.37;;;7.60;99.90;;;;;;5055119;28;20275;-73
2022/04/25 01:13:40;;;;;;;42.40;37.03;;;7.60;99.90;;;;;;5054950;28;20202;-73
2022/04/25 01:16:08;;;;;;;42.83;35.87;;;7.60;99.90;;;;;;5055114;28;20198;-73
2022/04/25 01:18:34;;;;;;;40.10;35.70;;;7.60;99.90;;;;;;5055592;28;20198;-73
2022/04/25 01:21:03;;;;;;;38.40;34.23;;;7.70;99.90;;;;;;5055408;28;20243;-73
2022/04/25 01:29:14;;;;;;;36.37;32.17;;;7.60;99.90;;;;;;5055057;28;20205;-73
2022/04/25 01:31:42;;;;;;;36.33;32.10;;;7.60;99.90;;;;;;5055030;28;20232;-73
2022/04/25 01:34:08;;;;;;;32.87;29.30;;;7.50;99.90;;;;;;5054760;28;20603;-73
2022/04/25 01:36:35;;;;;;;31.10;27.83;;;7.50;99.90;;;;;;5054923;28;20228;-73
2022/04/25 01:39:03;;;;;;;30.00;26.77;;;7.50;99.90;;;;;;5054972;28;20194;-73
2022/04/25 01:41:30;;;;;;;30.97;27.67;;;7.40;99.90;;;;;;5054553;28;20251;-73
2022/04/25 01:43:56;;;;;;;33.50;29.87;;;7.40;99.90;;;;;;5054693;28;20654;-73
2022/04/25 01:46:23;;;;;;;32.60;29.10;;;7.40;99.90;;;;;;5055171;28;20202;-74
2022/04/25 01:48:49;;;;;;;31.37;26.37;;;7.40;99.90;;;;;;5054687;28;20632;-73
2022/04/25 01:51:16;;;;;;;27.70;24.87;;;7.30;99.90;;;;;;5054937;28;20225;-74
2022/04/25 01:53:43;;;;;;;29.03;25.43;;;7.30;99.90;;;;;;5054797;28;20680;-74
2022/04/25 01:56:11;;;;;;;27.30;24.40;;;7.30;99.90;;;;;;5054757;28;20204;-73
2022/04/25 01:58:38;;;;;;;28.60;25.60;;;7.20;99.90;;;;;;5055022;28;20198;-74
2022/04/25 02:01:06;;;;;;;27.43;24.30;;;7.20;99.90;;;;;;5051402;28;94920;-73
2022/04/25 02:03:34;;;;;;;26.53;23.83;;;7.20;99.90;;;;;;5055458;28;20251;-73
2022/04/25 02:06:01;;;;;;;26.17;23.47;;;7.10;99.90;;;;;;5056565;28;20679;-73
2022/04/25 02:08:28;;;;;;;27.70;24.80;;;7.10;99.90;;;;;;5055984;28;20248;-73
2022/04/25 02:13:40;;;;;;;30.57;25.60;;;7.10;99.90;;;;;;5055724;28;20300;-74
2022/04/25 02:16:08;;;;;;;29.17;25.77;;;7.10;99.90;;;;;;5056052;28;20202;-74
2022/04/25 02:18:35;;;;;;;30.30;26.10;;;7.10;99.90;;;;;;5055796;28;20205;-74
2022/04/25 02:21:02;;;;;;;29.53;26.43;;;7.10;99.90;;;;;;5058910;28;20201;-74
2022/04/25 02:23:28;;;;;;;29.87;26.70;;;7.10;99.90;;;;;;5062664;28;20197;-73
2022/04/25 02:25:55;;;;;;;30.33;27.03;;;7.00;99.90;;;;;;5062478;28;20201;-74
2022/04/25 02:28:22;;;;;;;28.47;25.20;;;7.10;99.90;;;;;;5062590;28;20193;-74
2022/04/25 02:30:51;;;;;;;30.77;25.90;;;7.10;99.90;;;;;;5062065;28;20218;-74
2022/04/25 02:33:18;;;;;;;28.43;25.43;;;7.00;99.90;;;;;;5058518;28;20202;-74
2022/04/25 02:35:45;;;;;;;28.00;24.27;;;7.10;99.90;;;;;;5056671;28;20194;-74
2022/04/25 02:38:12;;;;;;;29.30;25.33;;;7.10;99.90;;;;;;5056800;28;20247;-74
2022/04/25 02:40:39;;;;;;;27.53;23.97;;;7.10;99.90;;;;;;5055458;28;20202;-73
2022/04/25 02:43:05;;;;;;;26.90;23.80;;;7.10;99.90;;;;;;5055024;28;20201;-73
2022/04/25 02:45:32;;;;;;;27.07;23.90;;;7.00;99.90;;;;;;5055261;28;20243;-74
2022/04/25 02:48:00;;;;;;;27.03;23.90;;;6.90;99.90;;;;;;5055586;28;20193;-74
2022/04/25 02:50:27;;;;;;;28.83;25.07;;;6.80;99.90;;;;;;5055345;28;20221;-74
2022/04/25 02:52:54;;;;;;;27.60;24.30;;;6.80;99.90;;;;;;5054444;28;20758;-74
2022/04/25 02:55:21;;;;;;;27.83;24.83;;;6.80;99.90;;;;;;5055048;28;20202;-75
2022/04/25 02:57:47;;;;;;;27.27;24.40;;;6.80;99.90;;;;;;5054997;28;20645;-74
2022/04/25 03:00:15;;;;;;;29.10;25.47;;;6.90;99.90;;;;;;5054664;28;20247;-74
2022/04/25 03:02:42;;;;;;;28.50;25.43;;;6.90;99.90;;;;;;5054913;28;20212;-74
2022/04/25 03:05:10;;;;;;;29.17;26.07;;;6.90;99.90;;;;;;5054501;28;20253;-73
2022/04/25 03:07:37;;;;;;;28.80;25.83;;;6.90;99.90;;;;;;5054816;28;20202;-74
2022/04/25 03:10:04;;;;;;;31.07;27.77;;;6.90;99.90;;;;;;5054995;28;20202;-74
2022/04/25 03:12:38;;;;;;;31.47;28.03;;;6.90;99.90;;;;;;5054568;28;20225;-74
2022/04/25 03:15:05;;;;;;;29.17;26.07;;;6.90;99.90;;;;;;5054428;28;20201;-73
2022/04/25 03:17:32;;;;;;;30.87;26.43;;;6.90;99.90;;;;;;5054682;28;20255;-73
2022/04/25 03:19:59;;;;;;;28.07;25.17;;;6.90;99.90;;;;;;5055351;28;20228;-74
2022/04/25 03:22:27;;;;;;;29.00;25.57;;;6.80;99.90;;;;;;5055237;28;20723;-74
2022/04/25 03:24:54;;;;;;;30.67;27.37;;;6.80;99.90;;;;;;5058081;28;20202;-74
2022/04/25 03:27:20;;;;;;;30.03;26.70;;;6.80;99.90;;;;;;5060699;28;20267;-74
2022/04/25 03:29:47;;;;;;;30.97;27.07;;;6.70;99.90;;;;;;5061238;28;20220;-75
2022/04/25 03:32:14;;;;;;;33.63;28.17;;;6.70;99.90;;;;;;5060894;28;20241;-73
2022/04/25 03:34:41;;;;;;;30.10;26.80;;;6.60;99.90;;;;;;5056151;28;20649;-74
2022/04/25 03:37:11;;;;;;;31.73;27.70;;;6.70;99.90;;;;;;5055050;28;20205;-74
2022/04/25 03:39:39;;;;;;;31.70;28.27;;;6.70;99.90;;;;;;5055117;28;20201;-74
2022/04/25 03:42:06;;;;;;;31.37;28.00;;;6.70;99.90;;;;;;5056437;28;20264;-74
2022/04/25 03:44:33;;;;;;;31.10;27.80;;;6.80;99.90;;;;;;5056338;28;20194;-74
2022/04/25 03:47:00;;;;;;;33.77;27.03;;;6.80;99.90;;;;;;5055507;28;20201;-74
2022/04/25 03:49:27;;;;;;;32.50;28.70;;;6.80;99.90;;;;;;5056266;28;20649;-73
2022/04/25 03:51:53;;;;;;;33.33;28.73;;;6.80;99.90;;;;;;5055944;28;20316;-74
2022/04/25 03:57:12;;;;;;;32.83;28.50;;;6.70;99.90;;;;;;5053369;28;20190;-74
2022/04/25 03:59:38;;;;;;;30.97;27.10;;;6.70;99.90;;;;;;5053785;28;20206;-74
2022/04/25 04:02:05;;;;;;;31.43;28.03;;;6.70;99.90;;;;;;5053848;28;20255;-73
2022/04/25 04:04:32;;;;;;;31.63;27.27;;;6.70;99.90;;;;;;5053906;28;20237;-74
2022/04/25 04:06:59;;;;;;;32.30;27.77;;;6.70;99.90;;;;;;5054275;28;20215;-74
2022/04/25 04:12:25;;;;;;;29.17;26.07;;;6.70;99.90;;;;;;4992236;28;20229;-73
2022/04/25 04:14:52;;;;;;;29.87;26.57;;;6.70;99.90;;;;;;5040042;28;20231;-74
2022/04/25 04:17:18;;;;;;;30.03;26.40;;;6.70;99.90;;;;;;5053792;28;20680;-73
2022/04/25 04:19:46;;;;;;;29.20;26.13;;;6.60;99.90;;;;;;5054020;28;20201;-74
2022/04/25 04:22:14;;;;;;;29.40;26.27;;;6.70;99.90;;;;;;5053929;28;20201;-74
2022/04/25 04:24:40;;;;;;;28.67;25.57;;;6.70;99.90;;;;;;5056501;28;20198;-74
2022/04/25 04:27:07;;;;;;;27.77;24.80;;;6.70;99.90;;;;;;5054802;28;20197;-74
2022/04/25 04:29:36;;;;;;;28.37;25.30;;;6.80;99.90;;;;;;5053859;28;20209;-74
2022/04/25 04:32:05;;;;;;;28.07;25.07;;;6.80;99.90;;;;;;5053592;28;20221;-74
2022/04/25 04:34:32;;;;;;;28.23;25.07;;;6.70;99.90;;;;;;5053783;28;20197;-74
2022/04/25 04:36:59;;;;;;;27.03;24.13;;;6.80;99.90;;;;;;5053197;28;20650;-73
2022/04/25 04:39:26;;;;;;;28.53;24.63;;;6.70;99.90;;;;;;5054923;28;20208;-73
2022/04/25 04:41:53;;;;;;;27.80;24.67;;;6.70;99.90;;;;;;5054217;28;20641;-74
2022/04/25 04:44:19;;;;;;;29.10;25.73;;;6.80;99.90;;;;;;5053592;28;20661;-73
2022/04/25 04:46:47;;;;;;;25.93;23.33;;;6.80;99.90;;;;;;5053953;28;20202;-74
2022/04/25 04:49:14;;;;;;;26.70;23.80;;;6.80;99.90;;;;;;5054389;28;20197;-74
2022/04/25 04:51:41;;;;;;;27.13;23.30;;;6.90;99.90;;;;;;5054444;28;20222;-74
2022/04/25 04:54:08;;;;;;;24.23;21.73;;;6.90;99.90;;;;;;5057516;28;20661;-74
2022/04/25 04:56:36;;;;;;;25.50;22.90;;;6.90;99.90;;;;;;5057546;28;20231;-74
2022/04/25 04:59:03;;;;;;;26.40;23.07;;;6.90;99.90;;;;;;5057207;28;20198;-74
2022/04/25 05:01:30;;;;;;;24.80;22.20;;;6.90;99.90;;;;;;5057022;28;20233;-74
2022/04/25 05:03:58;;;;;;;24.33;21.83;;;7.00;99.90;;;;;;5057080;28;20194;-74
2022/04/25 05:06:25;;;;;;;24.70;22.10;;;7.00;99.90;;;;;;5056993;28;20202;-74
2022/04/25 05:08:52;;;;;;;22.73;20.50;;;7.00;99.90;;;;;;5055364;28;20735;-74
2022/04/25 05:11:19;;;;;;;24.20;21.73;;;7.00;99.90;;;;;;5053230;28;20272;-74
2022/04/25 05:13:46;;;;;;;24.57;22.07;;;7.00;99.90;;;;;;5053413;28;20201;-74
2022/04/25 05:16:12;;;;;;;23.70;21.30;;;7.00;99.90;;;;;;5055274;28;20198;-73
2022/04/25 05:18:39;;;;;;;24.57;21.97;;;7.00;99.90;;;;;;5056612;28;20194;-74
2022/04/25 05:21:07;;;;;;;24.50;21.87;;;7.00;99.90;;;;;;5057037;28;20196;-74
2022/04/25 05:23:34;;;;;;;26.00;23.30;;;7.00;99.90;;;;;;5056787;28;20194;-74
2022/04/25 05:26:00;;;;;;;25.47;22.87;;;7.00;99.90;;;;;;5056704;28;20657;-74
2022/04/25 05:28:28;;;;;;;26.70;23.90;;;7.00;99.90;;;;;;5056610;28;20248;-74
2022/04/25 05:30:55;;;;;;;25.83;23.13;;;7.00;99.90;;;;;;5056344;28;20293;-74
2022/04/25 05:33:21;;;;;;;39.07;34.00;;;7.10;99.90;;;;;;5056696;28;20198;-75
2022/04/25 05:35:48;;;;;;;26.67;23.97;;;7.10;99.90;;;;;;5056742;28;20198;-74
2022/04/25 05:38:16;;;;;;;26.77;23.93;;;7.00;99.90;;;;;;5057082;28;20197;-75
2022/04/25 05:40:43;;;;;;;26.27;23.50;;;7.10;99.90;;;;;;5057367;28;20198;-73
2022/04/25 05:43:10;;;;;;;26.50;22.40;;;7.10;99.90;;;;;;5056959;28;20225;-73
2022/04/25 05:45:37;;;;;;;25.73;23.10;;;7.20;99.90;;;;;;5057403;28;20326;-74
2022/04/25 05:51:58;;;;;;;25.00;21.23;;;7.30;99.90;;;;;;5058585;28;20194;-73
2022/04/25 05:53:39;;;;;;;23.60;21.03;;;7.50;99.90;;;;;;5056931;28;20197;-73
2022/04/25 05:56:07;;;;;;;23.23;19.27;;;7.50;99.90;;;;;;5057098;28;20546;-74
2022/04/25 05:58:33;;;;;;;22.13;19.67;;;7.50;99.90;;;;;;5057741;28;20199;-73
2022/04/25 06:01:00;;;;;;;21.53;19.33;;;7.60;99.90;;;;;;5057371;28;20226;-73
2022/04/25 06:03:27;;;;;;;21.30;19.13;;;7.70;99.90;;;;;;5056743;28;20203;-74
2022/04/25 06:05:54;;;;;;;20.03;18.03;;;7.90;99.90;;;;;;5056063;28;20252;-74
2022/04/25 06:08:21;;;;;;;21.03;19.00;;;7.90;99.90;;;;;;5055864;28;20561;-74
2022/04/25 06:10:49;;;;;;;19.33;17.33;;;7.90;99.90;;;;;;5055906;28;20204;-74
2022/04/25 06:13:16;;;;;;;17.73;16.03;;;8.00;99.90;;;;;;5055990;28;20251;-74
2022/04/25 06:15:42;;;;;;;19.20;17.20;;;8.00;99.90;;;;;;5056546;28;20202;-74
2022/04/25 06:18:09;;;;;;;19.53;17.53;;;7.90;99.90;;;;;;5056021;28;20194;-74
2022/04/25 06:20:37;;;;;;;20.07;17.80;;;7.90;99.90;;;;;;5056185;28;20208;-74
2022/04/25 06:23:04;;;;;;;19.70;17.70;;;7.80;99.90;;;;;;5056090;28;20201;-73
2022/04/25 06:25:31;;;;;;;20.23;18.23;;;7.80;99.90;;;;;;5056783;28;20656;-74
2022/04/25 06:28:00;;;;;;;20.83;18.83;;;7.90;99.90;;;;;;5055179;28;20339;-74
2022/04/25 06:30:29;;;;;;;20.03;17.93;;;7.90;99.90;;;;;;5055824;28;20201;-74
2022/04/25 06:32:56;;;;;;;20.40;18.40;;;7.90;99.90;;;;;;5055989;28;20255;-74
2022/04/25 06:35:23;;;;;;;22.13;19.93;;;7.80;99.90;;;;;;5055488;28;20204;-75
2022/04/25 06:37:49;;;;;;;21.60;19.27;;;7.90;99.90;;;;;;5055400;28;20198;-74
2022/04/25 06:40:16;;;;;;;21.73;19.63;;;7.90;99.90;;;;;;5055495;28;20202;-74
2022/04/25 06:42:43;;;;;;;21.20;19.00;;;8.00;99.90;;;;;;5055784;28;20194;-74
2022/04/25 06:45:12;;;;;;;21.00;18.80;;;8.00;99.90;;;;;;5055797;28;20202;-75
2022/04/25 06:47:39;;;;;;;20.30;18.20;;;8.00;99.90;;;;;;5055362;28;20575;-75
2022/04/25 06:50:08;;;;;;;21.90;19.70;;;8.00;99.90;;;;;;5055209;28;20240;-74
2022/04/25 06:52:35;;;;;;;20.50;18.37;;;8.10;99.90;;;;;;5055841;28;20225;-74
2022/04/25 06:55:04;;;;;;;21.97;19.70;;;8.00;99.90;;;;;;5056889;28;20201;-76
2022/04/25 06:57:33;;;;;;;23.50;19.73;;;8.10;99.90;;;;;;5051872;28;20221;-76
2022/04/25 06:59:59;;;;;;;23.30;20.57;;;8.10;99.90;;;;;;5055482;28;20676;-76
2022/04/25 07:02:27;;;;;;;21.57;19.07;;;8.00;99.90;;;;;;5054919;28;20283;-74
2022/04/25 07:04:54;;;;;;;21.67;19.27;;;8.10;99.90;;;;;;5055443;28;20231;-76
2022/04/25 07:07:21;;;;;;;23.07;20.13;;;8.10;99.90;;;;;;5054799;28;20197;-75
2022/04/25 07:09:48;;;;;;;24.03;21.57;;;8.20;99.90;;;;;;5055823;28;20213;-78
2022/04/25 07:12:15;;;;;;;25.00;19.13;;;8.30;99.90;;;;;;5055158;28;20218;-74
2022/04/25 07:14:42;;;;;;;21.03;18.77;;;8.50;99.90;;;;;;5056968;28;20631;-74
2022/04/25 07:17:09;;;;;;;20.43;18.23;;;8.50;99.90;;;;;;5054411;28;20205;-76
2022/04/25 07:19:39;;;;;;;19.87;17.77;;;8.70;99.90;;;;;;5055939;28;20224;-76
2022/04/25 07:30:20;;;;;;;17.40;15.80;;;9.40;99.90;;;;;;5057579;28;20243;-76
2022/04/25 07:32:47;;;;;;;17.50;15.80;;;9.40;99.90;;;;;;5057723;28;20225;-75
2022/04/25 07:35:15;;;;;;;18.73;16.90;;;9.50;99.90;;;;;;5057153;28;20208;-75
2022/04/25 07:37:42;;;;;;;17.67;15.90;;;9.50;99.90;;;;;;5057386;28;20198;-75
2022/04/25 07:40:09;;;;;;;17.90;16.20;;;9.40;99.90;;;;;;5056260;28;20251;-73
2022/04/25 07:42:38;;;;;;;17.23;15.63;;;9.30;99.90;;;;;;5056348;28;20193;-73
2022/04/25 07:45:06;;;;;;;17.30;15.63;;;9.20;99.90;;;;;;5057159;28;20202;-76
2022/04/25 07:47:33;;;;;;;19.30;17.27;;;9.20;99.90;;;;;;5055229;28;20201;-77
2022/04/25 07:50:00;;;;;;;16.77;15.17;;;9.40;99.90;;;;;;5057143;28;20193;-76
2022/04/25 07:52:28;;;;;;;17.37;15.03;;;9.50;99.90;;;;;;5057603;28;20228;-77
2022/04/25 07:54:56;;;;;;;18.37;16.47;;;9.50;99.90;;;;;;5058651;28;20201;-78
2022/04/25 07:57:23;;;;;;;18.37;16.47;;;9.80;99.90;;;;;;5058168;28;20251;-76
2022/04/25 07:59:49;;;;;;;18.23;15.57;;;9.70;99.90;;;;;;5059625;28;20198;-74
2022/04/25 08:02:17;;;;;;;17.50;15.70;;;9.80;99.90;;;;;;5054778;28;20697;-75
2022/04/25 08:04:44;;;;;;;17.87;16.03;;;10.00;99.90;;;;;;5053643;28;20638;-74
2022/04/25 08:07:11;;;;;;;15.80;14.30;;;10.00;99.90;;;;;;5053704;28;20281;-74
2022/04/25 08:09:39;;;;;;;17.47;15.67;;;10.30;99.90;;;;;;5053612;28;20284;-74
2022/04/25 08:20:20;;;;;;;15.87;13.93;;;10.90;99.90;;;;;;5061404;28;20251;-76
2022/04/25 08:22:46;;;;;;;14.10;12.80;;;11.00;99.90;;;;;;5074559;28;20205;-77
2022/04/25 08:25:15;;;;;;;15.23;13.77;;;11.20;99.90;;;;;;5081551;28;20193;-76
2022/04/25 08:27:42;;;;;;;15.87;14.13;;;11.60;99.90;;;;;;5081856;28;20193;-80
2022/04/25 08:30:11;;;;;;;15.70;14.20;;;11.70;99.90;;;;;;5080852;28;20189;-76
2022/04/25 08:32:38;;;;;;;14.20;12.73;;;11.70;99.90;;;;;;5081822;28;20220;-75
2022/04/25 08:35:05;;;;;;;14.20;12.80;;;11.90;99.90;;;;;;5080689;28;20193;-76
2022/04/25 08:37:34;;;;;;;14.20;12.80;;;11.70;99.90;;;;;;5082282;28;20564;-75
2022/04/25 08:40:01;;;;;;;15.40;13.93;;;11.50;99.90;;;;;;5076219;28;20561;-75
2022/04/25 08:42:29;;;;;;;13.73;12.33;;;11.50;99.90;;;;;;5076419;28;20273;-75
2022/04/25 08:44:57;;;;;;;13.70;12.40;;;11.90;99.90;;;;;;5075560;28;20220;-75
2022/04/25 08:47:29;;;;;;;14.03;12.57;;;12.30;99.90;;;;;;5074653;28;20219;-75
2022/04/25 08:49:58;;;;;;;12.53;11.43;;;12.50;99.90;;;;;;5074692;28;20230;-76
2022/04/25 08:52:26;;;;;;;12.90;11.60;;;12.20;99.90;;;;;;5080358;28;20225;-79
2022/04/25 08:54:54;;;;;;;12.63;11.47;;;12.40;99.90;;;;;;5081054;28;20201;-76
2022/04/25 08:57:21;;;;;;;12.90;11.63;;;12.70;99.90;;;;;;5072438;28;20201;-76
2022/04/25 08:59:51;;;;;;;11.60;10.60;;;12.70;99.90;;;;;;5079571;28;20227;-74
2022/04/25 09:02:17;;;;;;;12.57;11.37;;;12.80;99.90;;;;;;5077461;28;20225;-74
2022/04/25 09:04:46;;;;;;;12.17;10.97;;;12.70;99.90;;;;;;5077642;28;20270;-74
2022/04/25 09:07:13;;;;;;;10.70;9.70;;;12.90;99.90;;;;;;5077218;28;20200;-76
2022/04/25 09:09:41;;;;;;;11.07;9.97;;;13.00;99.90;;;;;;5076019;28;20201;-74
2022/04/25 09:12:13;;;;;;;11.07;9.90;;;12.90;99.90;;;;;;5076590;28;20262;-75
2022/04/25 09:14:41;;;;;;;10.57;9.67;;;13.00;99.90;;;;;;5076541;28;20209;-74
2022/04/25 09:17:10;;;;;;;10.80;9.73;;;12.90;99.90;;;;;;5076116;28;20726;-75
2022/04/25 09:19:38;;;;;;;11.20;10.20;;;12.90;99.90;;;;;;5075687;28;20201;-75
2022/04/25 09:22:06;;;;;;;12.33;11.23;;;13.20;99.90;;;;;;5075376;28;20197;-75
2022/04/25 09:24:34;;;;;;;11.27;10.07;;;13.00;99.90;;;;;;5075257;28;20209;-75
2022/04/25 09:27:13;;;;;;;10.77;9.80;;;13.40;99.90;;;;;;5075399;28;20198;-76
2022/04/25 09:29:41;;;;;;;11.37;10.37;;;13.90;99.90;;;;;;5075014;28;20196;-76
2022/04/25 09:32:10;;;;;;;10.23;9.43;;;14.40;99.90;;;;;;5061918;28;20518;-77
2022/04/25 09:37:41;;;;;;;9.20;8.43;;;15.00;99.90;;;;;;5054829;28;20201;-74
2022/04/25 09:40:08;;;;;;;9.40;8.60;;;15.40;99.90;;;;;;5055173;28;20604;-74
2022/04/25 09:42:36;;;;;;;9.00;8.20;;;15.80;99.90;;;;;;5054897;28;20201;-75
2022/04/25 09:45:05;;;;;;;8.63;7.93;;;15.50;99.90;;;;;;5054988;28;20197;-74
2022/04/25 09:47:34;;;;;;;7.72;7.03;;;15.80;99.90;;;;;;5055258;28;20197;-74
2022/04/25 09:50:04;;;;;;;8.00;7.38;;;15.80;99.90;;;;;;5054254;28;20268;-74
2022/04/25 09:52:31;;;;;;;7.63;6.93;;;15.60;99.90;;;;;;5053964;28;20210;-74
2022/04/25 09:55:11;;;;;;;8.52;7.72;;;15.70;99.90;;;;;;5052169;28;20198;-74
2022/04/25 09:57:38;;;;;;;7.90;7.20;;;15.50;99.90;;;;;;5053466;28;20205;-74
2022/04/25 10:00:30;;;;;;;9.00;8.20;;;15.70;99.90;;;;;;5053811;28;20202;-75
2022/04/25 10:02:59;;;;;;;9.18;8.32;;;15.60;99.90;;;;;;5042867;28;20229;-73
2022/04/25 10:05:41;;;;;;;9.13;8.23;;;15.70;99.90;;;;;;5053972;28;20244;-73
2022/04/25 10:08:09;;;;;;;8.32;7.63;;;16.10;99.90;;;;;;5053344;28;20205;-73
2022/04/25 10:10:41;;;;;;;7.20;6.60;;;16.50;99.90;;;;;;5053692;28;20233;-73
2022/04/25 10:13:09;;;;;;;6.80;6.20;;;16.70;99.90;;;;;;5053932;28;20681;-73
2022/04/25 10:15:37;;;;;;;5.97;4.93;;;17.20;99.90;;;;;;5053978;28;20198;-74
2022/04/25 10:18:07;;;;;;;6.03;5.50;;;17.70;99.90;;;;;;5054440;28;20197;-73
2022/04/25 10:20:36;;;;;;;7.03;6.32;;;18.50;99.90;;;;;;5054311;28;20256;-73
2022/04/25 10:23:03;;;;;;;6.15;5.65;;;19.30;95.40;;;;;;5054315;28;20654;-76
2022/04/25 10:25:30;;;;;;;6.40;5.90;;;19.70;89.20;;;;;;5054377;28;20229;-75
2022/04/25 10:27:59;;;;;;;6.40;5.90;;;19.70;90.10;;;;;;5054764;28;20528;-75
2022/04/25 10:30:33;;;;;;;6.88;6.38;;;19.60;89.80;;;;;;5054380;28;20198;-75
2022/04/25 10:33:18;;;;;;;7.40;6.75;;;19.70;84.70;;;;;;5053973;28;20228;-74
2022/04/25 10:35:46;;;;;;;6.80;6.28;;;19.70;85.70;;;;;;5054241;28;20202;-75
2022/04/25 10:38:50;;;;;;;6.90;6.40;;;19.30;80.70;;;;;;5053243;28;20194;-75
2022/04/25 10:44:48;;;;;;;7.00;6.40;;;19.20;89.20;;;;;;5053782;28;20283;-74
2022/04/25 10:47:17;;;;;;;7.20;6.60;;;19.10;82.90;;;;;;5026612;28;20224;-74
2022/04/25 10:49:46;;;;;;;6.88;6.38;;;18.80;82.20;;;;;;5053325;28;20309;-74
2022/04/25 10:52:57;;;;;;;7.35;6.60;;;18.30;83.70;;;;;;5053384;28;20649;-74
2022/04/25 10:55:36;;;;;;;6.38;5.88;;;18.20;90.10;;;;;;5051955;28;20201;-75
2022/04/25 10:58:14;;;;;;;7.10;6.47;;;17.90;88.10;;;;;;5052838;28;20201;-74
2022/04/25 11:00:57;;;;;;;8.30;7.35;;;17.90;90.30;;;;;;5053455;28;20557;-74
2022/04/25 11:03:32;;;;;;;7.78;7.13;;;17.90;91.70;;;;;;5053220;28;20722;-74
2022/04/25 11:06:06;;;;;;;6.50;5.97;;;19.00;88.40;;;;;;5053117;28;20201;-74
2022/04/25 11:08:34;;;;;;;6.95;5.82;;;20.10;81.80;;;;;;5052919;28;20194;-76
2022/04/25 11:11:08;;;;;;;6.57;5.95;;;21.50;71.60;;;;;;5053532;28;20201;-75
2022/04/25 11:13:36;;;;;;;6.20;5.60;;;22.10;60.70;;;;;;5052696;28;20253;-75
2022/04/25 11:16:18;;;;;;;5.18;4.78;;;23.20;58.60;;;;;;5053438;28;20236;-76
2022/04/25 11:18:46;;;;;;;5.20;4.80;;;23.50;53.10;;;;;;5053329;28;20206;-75
2022/04/25 11:21:16;;;;;;;5.30;4.90;;;24.30;43.40;;;;;;5053106;28;20255;-75
2022/04/25 11:23:50;;;;;;;5.85;5.32;;;22.90;41.60;;;;;;5053209;28;20657;-75
2022/04/25 11:26:54;;;;;;;5.38;4.38;;;24.30;42.80;;;;;;5053127;28;20201;-78
2022/04/25 11:29:21;;;;;;;5.35;4.95;;;25.70;37.10;;;;;;5053066;28;20204;-77
2022/04/25 11:31:48;;;;;;;6.03;5.30;;;24.30;37.60;;;;;;5053116;28;20255;-79
2022/04/25 11:34:16;;;;;;;5.50;5.10;;;22.50;38.10;;;;;;5053295;28;20229;-78
2022/04/25 11:36:45;;;;;;;5.50;5.10;;;19.90;42.20;;;;;;5052969;28;20300;-77
2022/04/25 11:41:58;;;;;;;5.68;5.28;;;18.40;46.90;;;;;;5053071;28;20213;-74
2022/04/25 11:44:25;;;;;;;5.97;5.47;;;19.10;48.70;;;;;;5052779;28;20202;-75
2022/04/25 11:46:53;;;;;;;6.10;5.70;;;19.30;49.10;;;;;;5052935;28;20201;-74
2022/04/25 11:49:27;;;;;;;6.20;5.70;;;19.10;49.30;;;;;;5052951;28;20201;-74
2022/04/25 11:51:58;;;;;;;7.15;6.05;;;18.40;52.70;;;;;;5052991;28;20197;-74
2022/04/25 11:54:25;;;;;;;6.60;6.10;;;17.70;50.80;;;;;;5052658;28;20267;-82
2022/04/25 11:56:52;;;;;;;6.30;5.70;;;18.00;52.90;;;;;;5052912;28;20735;-78
2022/04/25 11:59:19;;;;;;;6.00;5.43;;;18.20;52.90;;;;;;5052772;28;20224;-85
2022/04/25 12:01:48;;;;;;;5.70;5.30;;;18.40;54.50;;;;;;5052869;28;20252;-76
2022/04/25 12:04:16;;;;;;;6.07;5.57;;;18.30;55.00;;;;;;5052661;28;20201;-76
2022/04/25 12:06:51;;;;;;;6.25;5.70;;;18.60;55.50;;;;;;5052871;28;20241;-76
2022/04/25 12:17:39;;;;;;;5.82;5.32;;;22.50;44.30;;;;;;5052631;28;20201;-77
2022/04/25 12:20:09;;;;;;;5.13;4.72;;;21.90;45.00;;;;;;5052629;28;20218;-77
2022/04/25 12:22:36;;;;;;;4.85;4.45;;;21.80;44.50;;;;;;5052820;28;20194;-77
2022/04/25 12:25:18;;;;;;;5.40;4.90;;;21.80;42.30;;;;;;5054522;28;20213;-77
2022/04/25 12:28:02;;;;;;;5.00;4.55;;;22.00;42.10;;;;;;5056600;28;20649;-76
2022/04/25 12:30:30;;;;;;;5.68;5.00;;;22.00;42.00;;;;;;5056730;28;20596;-76
2022/04/25 12:33:07;;;;;;;5.00;4.70;;;21.60;41.60;;;;;;5056484;28;20198;-77
2022/04/25 12:35:34;;;;;;;5.28;4.80;;;21.10;41.00;;;;;;5056585;28;20603;-77
2022/04/25 12:38:01;;;;;;;5.03;4.60;;;20.40;42.80;;;;;;5056427;28;20209;-77
2022/04/25 12:40:29;;;;;;;4.95;4.50;;;20.10;44.70;;;;;;5056509;28;20193;-77
2022/04/25 12:42:56;;;;;;;6.22;5.20;;;20.00;47.20;;;;;;5056212;28;20552;-77
2022/04/25 12:45:24;;;;;;;4.75;4.45;;;19.60;47.90;;;;;;5056488;28;20223;-77
2022/04/25 12:47:55;;;;;;;6.93;5.10;;;18.90;49.30;;;;;;5056146;28;20276;-77
2022/04/25 12:50:40;;;;;;;5.10;4.70;;;18.60;50.40;;;;;;5056288;28;20251;-76
2022/04/25 12:53:07;;;;;;;5.30;4.90;;;18.50;51.60;;;;;;5056534;28;20198;-75
2022/04/25 12:55:47;;;;;;;4.63;4.32;;;18.70;52.40;;;;;;5056172;28;20279;-76
2022/04/25 12:58:14;;;;;;;7.25;5.40;;;18.80;51.80;;;;;;5056026;28;20198;-76
2022/04/25 13:00:42;;;;;;;7.45;5.00;;;19.10;52.50;;;;;;5060140;28;20286;-78
2022/04/25 13:03:09;;;;;;;5.45;4.93;;;21.10;50.50;;;;;;5076120;28;20201;-77
2022/04/25 13:05:35;;;;;;;5.97;4.32;;;22.80;45.40;;;;;;5076260;28;20656;-79
2022/04/25 13:08:02;;;;;;;4.40;4.00;;;24.00;42.20;;;;;;5075881;28;20205;-78
2022/04/25 13:10:29;;;;;;;4.45;4.15;;;25.30;38.20;;;;;;5075727;28;20601;-78
2022/04/25 13:12:57;;;;;;;4.07;3.78;;;25.40;36.00;;;;;;5075838;28;20262;-78
2022/04/25 13:15:26;;;;;;;4.22;3.83;;;25.30;36.30;;;;;;5075798;28;20275;-78
2022/04/25 13:17:54;;;;;;;4.00;3.70;;;25.00;35.80;;;;;;5075726;28;20599;-79
2022/04/25 13:20:22;;;;;;;3.97;3.67;;;24.40;35.60;;;;;;5076142;28;20232;-78
2022/04/25 13:22:49;;;;;;;4.57;4.10;;;23.50;34.30;;;;;;5075770;28;20627;-79
2022/04/25 13:25:19;;;;;;;4.20;3.90;;;22.90;34.50;;;;;;5078399;28;20227;-78
2022/04/25 13:27:46;;;;;;;4.35;4.03;;;21.80;35.50;;;;;;5075592;28;20192;-78
2022/04/25 13:30:16;;;;;;;4.13;3.83;;;21.50;35.80;;;;;;5076034;28;20216;-81
2022/04/25 13:32:44;;;;;;;4.13;3.83;;;21.20;37.90;;;;;;5075744;28;20491;-77
2022/04/25 13:35:11;;;;;;;4.45;4.15;;;21.10;38.50;;;;;;5075469;28;20565;-75